SAS1213 EKCH-EKYT
Flight info
| Callsign | SAS1213 |
|---|---|
| Flight time | 0h 29m |
| Altitude | 18000 |
| Route | GOLGA T506 LAPMA L621 AAL |
| Aircraft | A20N/M-SDE3FGIJ1RWXY/ALB1 |
Departure
| Time | 2026-05-05 14:09 |
|---|---|
| Airport | Copenhagen Kastrup Airport (EKCH) |
Arrival
| Time | 2026-05-05 14:39 |
|---|---|
| Airport | Aalborg Airport (EKYT) |
| Time | Latitude | Longitude | Altitude | Speed | Heading |
|---|---|---|---|---|---|
| 2026-05-05 13:31 | 55.62714 | 12.64453 | 26 ft | 0 kts | 103° |
| 2026-05-05 13:55 | 55.62715 | 12.64443 | 26 ft | 2 kts | 103° |
| 2026-05-05 13:55 | 55.62718 | 12.64421 | 26 ft | 2 kts | 98° |
| 2026-05-05 13:55 | 55.62719 | 12.64395 | 26 ft | 2 kts | 96° |
| 2026-05-05 13:56 | 55.62720 | 12.64374 | 26 ft | 2 kts | 98° |
| 2026-05-05 13:56 | 55.62716 | 12.64349 | 26 ft | 2 kts | 44° |
| 2026-05-05 13:56 | 55.62703 | 12.64338 | 26 ft | 2 kts | 13° |
| 2026-05-05 13:56 | 55.62688 | 12.64329 | 26 ft | 2 kts | 22° |
| 2026-05-05 13:57 | 55.62674 | 12.64320 | 26 ft | 2 kts | 20° |
| 2026-05-05 13:57 | 55.62660 | 12.64310 | 26 ft | 2 kts | 21° |
| 2026-05-05 13:57 | 55.62646 | 12.64300 | 26 ft | 2 kts | 26° |
| 2026-05-05 13:57 | 55.62632 | 12.64288 | 26 ft | 2 kts | 29° |
| 2026-05-05 13:58 | 55.62619 | 12.64274 | 26 ft | 2 kts | 33° |
| 2026-05-05 13:58 | 55.62606 | 12.64259 | 26 ft | 2 kts | 34° |
| 2026-05-05 13:58 | 55.62594 | 12.64245 | 26 ft | 2 kts | 34° |
| 2026-05-05 13:58 | 55.62581 | 12.64230 | 26 ft | 2 kts | 31° |
| 2026-05-05 13:59 | 55.62558 | 12.64203 | 26 ft | 2 kts | 46° |
| 2026-05-05 13:59 | 55.62550 | 12.64180 | 26 ft | 2 kts | 71° |
| 2026-05-05 14:00 | 55.62552 | 12.64128 | 26 ft | 2 kts | 119° |
| 2026-05-05 14:00 | 55.62557 | 12.64114 | 26 ft | 2 kts | 127° |
| 2026-05-05 14:00 | 55.62568 | 12.64085 | 25 ft | 2 kts | 122° |
| 2026-05-05 14:00 | 55.62575 | 12.64063 | 26 ft | 1 kts | 122° |
| 2026-05-05 14:01 | 55.62576 | 12.64061 | 26 ft | 0 kts | 122° |
| 2026-05-05 14:02 | 55.62574 | 12.64067 | 26 ft | 2 kts | 122° |
| 2026-05-05 14:03 | 55.62560 | 12.64107 | 25 ft | 5 kts | 122° |
| 2026-05-05 14:03 | 55.62535 | 12.64175 | 26 ft | 7 kts | 126° |
| 2026-05-05 14:03 | 55.62496 | 12.64280 | 26 ft | 12 kts | 126° |
| 2026-05-05 14:03 | 55.62444 | 12.64402 | 26 ft | 12 kts | 130° |
| 2026-05-05 14:04 | 55.62389 | 12.64529 | 26 ft | 13 kts | 124° |
| 2026-05-05 14:04 | 55.62337 | 12.64674 | 26 ft | 14 kts | 123° |
| 2026-05-05 14:04 | 55.62280 | 12.64788 | 26 ft | 12 kts | 159° |
| 2026-05-05 14:04 | 55.62198 | 12.64759 | 26 ft | 12 kts | 212° |
| 2026-05-05 14:05 | 55.62121 | 12.64667 | 26 ft | 14 kts | 214° |
| 2026-05-05 14:05 | 55.62036 | 12.64567 | 25 ft | 15 kts | 213° |
| 2026-05-05 14:05 | 55.61939 | 12.64499 | 26 ft | 15 kts | 179° |
| 2026-05-05 14:05 | 55.61832 | 12.64532 | 26 ft | 15 kts | 171° |
| 2026-05-05 14:06 | 55.61727 | 12.64566 | 27 ft | 16 kts | 170° |
| 2026-05-05 14:06 | 55.61623 | 12.64502 | 26 ft | 16 kts | 213° |
| 2026-05-05 14:06 | 55.61523 | 12.64390 | 26 ft | 17 kts | 213° |
| 2026-05-05 14:06 | 55.61424 | 12.64274 | 28 ft | 17 kts | 213° |
| 2026-05-05 14:07 | 55.61317 | 12.64160 | 27 ft | 17 kts | 211° |
| 2026-05-05 14:07 | 55.61212 | 12.64031 | 26 ft | 18 kts | 213° |
| 2026-05-05 14:07 | 55.61100 | 12.63905 | 25 ft | 19 kts | 214° |
| 2026-05-05 14:07 | 55.60983 | 12.63767 | 24 ft | 20 kts | 213° |
| 2026-05-05 14:08 | 55.60858 | 12.63622 | 22 ft | 21 kts | 212° |
| 2026-05-05 14:08 | 55.60769 | 12.63613 | 22 ft | 12 kts | 137° |
| 2026-05-05 14:08 | 55.60714 | 12.63744 | 22 ft | 13 kts | 126° |
| 2026-05-05 14:08 | 55.60693 | 12.63897 | 21 ft | 14 kts | 54° |
| 2026-05-05 14:09 | 55.60793 | 12.64056 | 22 ft | 53 kts | 39° |
| 2026-05-05 14:09 | 55.61491 | 12.65133 | 28 ft | 142 kts | 39° |
| 2026-05-05 14:09 | 55.62266 | 12.66340 | 550 ft | 152 kts | 39° |
| 2026-05-05 14:09 | 55.63053 | 12.67569 | 1257 ft | 156 kts | 39° |
| 2026-05-05 14:10 | 55.63595 | 12.68417 | 1659 ft | 162 kts | 39° |
| 2026-05-05 14:10 | 55.64777 | 12.70251 | 2332 ft | 183 kts | 39° |
| 2026-05-05 14:10 | 55.65896 | 12.71368 | 2843 ft | 196 kts | 13° |
| 2026-05-05 14:10 | 55.67296 | 12.71389 | 3376 ft | 212 kts | 346° |
| 2026-05-05 14:11 | 55.68754 | 12.70547 | 3953 ft | 230 kts | 346° |
| 2026-05-05 14:11 | 55.70394 | 12.70128 | 4555 ft | 248 kts | 354° |
| 2026-05-05 14:11 | 55.72132 | 12.69820 | 5359 ft | 258 kts | 354° |
| 2026-05-05 14:11 | 55.73957 | 12.69543 | 6331 ft | 263 kts | 354° |
| 2026-05-05 14:12 | 55.75769 | 12.69314 | 7274 ft | 267 kts | 354° |
| 2026-05-05 14:12 | 55.77621 | 12.69105 | 8176 ft | 272 kts | 354° |
| 2026-05-05 14:12 | 55.79506 | 12.68898 | 9048 ft | 278 kts | 352° |
| 2026-05-05 14:12 | 55.81389 | 12.68043 | 9894 ft | 277 kts | 328° |
| 2026-05-05 14:13 | 55.82900 | 12.65891 | 10665 ft | 278 kts | 306° |
| 2026-05-05 14:13 | 55.83843 | 12.62820 | 11182 ft | 291 kts | 290° |
| 2026-05-05 14:13 | 55.84581 | 12.59388 | 11643 ft | 309 kts | 289° |
| 2026-05-05 14:13 | 55.85373 | 12.55718 | 12066 ft | 327 kts | 289° |
| 2026-05-05 14:14 | 55.86221 | 12.51843 | 12439 ft | 346 kts | 290° |
| 2026-05-05 14:14 | 55.87127 | 12.47731 | 12855 ft | 360 kts | 290° |
| 2026-05-05 14:14 | 55.88050 | 12.43563 | 13574 ft | 365 kts | 289° |
| 2026-05-05 14:14 | 55.88972 | 12.39409 | 14345 ft | 368 kts | 290° |
| 2026-05-05 14:15 | 55.90026 | 12.35272 | 15073 ft | 372 kts | 294° |
| 2026-05-05 14:15 | 55.91288 | 12.31216 | 15781 ft | 378 kts | 297° |
| 2026-05-05 14:15 | 55.92761 | 12.27234 | 16462 ft | 383 kts | 301° |
| 2026-05-05 14:15 | 55.94294 | 12.23332 | 17141 ft | 387 kts | 301° |
| 2026-05-05 14:16 | 55.95855 | 12.19388 | 17657 ft | 390 kts | 301° |
| 2026-05-05 14:16 | 55.97408 | 12.15459 | 17900 ft | 391 kts | 301° |
| 2026-05-05 14:16 | 55.99005 | 12.11407 | 17918 ft | 390 kts | 301° |
| 2026-05-05 14:16 | 56.00559 | 12.07456 | 17913 ft | 389 kts | 301° |
| 2026-05-05 14:17 | 56.02214 | 12.03515 | 17905 ft | 392 kts | 306° |
| 2026-05-05 14:17 | 56.04107 | 12.00086 | 17915 ft | 396 kts | 314° |
| 2026-05-05 14:17 | 56.06313 | 11.97073 | 17924 ft | 401 kts | 321° |
| 2026-05-05 14:17 | 56.08714 | 11.94494 | 17928 ft | 403 kts | 324° |
| 2026-05-05 14:18 | 56.11174 | 11.92001 | 17914 ft | 404 kts | 325° |
| 2026-05-05 14:18 | 56.13674 | 11.89489 | 17927 ft | 404 kts | 325° |
| 2026-05-05 14:18 | 56.16158 | 11.86986 | 17925 ft | 404 kts | 325° |
| 2026-05-05 14:18 | 56.18589 | 11.84525 | 17920 ft | 404 kts | 325° |
| 2026-05-05 14:19 | 56.21034 | 11.82039 | 17919 ft | 403 kts | 325° |
| 2026-05-05 14:19 | 56.23473 | 11.79553 | 17922 ft | 403 kts | 325° |
| 2026-05-05 14:19 | 56.25880 | 11.77093 | 17925 ft | 403 kts | 325° |
| 2026-05-05 14:19 | 56.28297 | 11.74617 | 17923 ft | 402 kts | 325° |
| 2026-05-05 14:20 | 56.30717 | 11.72137 | 17923 ft | 402 kts | 325° |
| 2026-05-05 14:20 | 56.33168 | 11.69580 | 17922 ft | 401 kts | 323° |
| 2026-05-05 14:20 | 56.35499 | 11.66923 | 17918 ft | 400 kts | 322° |
| 2026-05-05 14:20 | 56.37810 | 11.64206 | 17919 ft | 400 kts | 322° |
| 2026-05-05 14:21 | 56.40172 | 11.61409 | 17918 ft | 399 kts | 322° |
| 2026-05-05 14:21 | 56.42503 | 11.58645 | 17922 ft | 399 kts | 322° |
| 2026-05-05 14:21 | 56.44056 | 11.56804 | 17927 ft | 399 kts | 322° |
| 2026-05-05 14:21 | 56.47114 | 11.53175 | 17924 ft | 399 kts | 322° |
| 2026-05-05 14:22 | 56.49435 | 11.50417 | 17923 ft | 399 kts | 321° |
| 2026-05-05 14:22 | 56.51746 | 11.47668 | 17925 ft | 399 kts | 321° |
| 2026-05-05 14:22 | 56.54046 | 11.44927 | 17923 ft | 398 kts | 321° |
| 2026-05-05 14:22 | 56.56341 | 11.42190 | 17692 ft | 393 kts | 322° |
| 2026-05-05 14:23 | 56.58610 | 11.39479 | 16821 ft | 396 kts | 322° |
| 2026-05-05 14:23 | 56.60859 | 11.36620 | 15883 ft | 396 kts | 317° |
| 2026-05-05 14:23 | 56.62873 | 11.33282 | 15268 ft | 386 kts | 309° |
| 2026-05-05 14:23 | 56.64567 | 11.29622 | 14696 ft | 377 kts | 303° |
| 2026-05-05 14:24 | 56.66073 | 11.25852 | 14129 ft | 371 kts | 301° |
| 2026-05-05 14:24 | 56.67551 | 11.22055 | 13551 ft | 367 kts | 301° |
| 2026-05-05 14:24 | 56.69046 | 11.18186 | 12901 ft | 364 kts | 302° |
| 2026-05-05 14:24 | 56.70521 | 11.14365 | 12232 ft | 362 kts | 302° |
| 2026-05-05 14:25 | 56.72015 | 11.10496 | 11628 ft | 357 kts | 302° |
| 2026-05-05 14:25 | 56.73455 | 11.06774 | 11144 ft | 349 kts | 303° |
| 2026-05-05 14:25 | 56.74832 | 11.03209 | 10739 ft | 340 kts | 303° |
| 2026-05-05 14:25 | 56.76175 | 10.99731 | 10515 ft | 326 kts | 303° |
| 2026-05-05 14:26 | 56.77456 | 10.96412 | 10346 ft | 312 kts | 303° |
| 2026-05-05 14:26 | 56.78695 | 10.93196 | 10194 ft | 298 kts | 303° |
| 2026-05-05 14:26 | 56.79895 | 10.90078 | 10078 ft | 283 kts | 303° |
| 2026-05-05 14:26 | 56.80647 | 10.88120 | 10011 ft | 274 kts | 303° |
| 2026-05-05 14:27 | 56.82105 | 10.84320 | 9679 ft | 265 kts | 303° |
| 2026-05-05 14:27 | 56.83153 | 10.81575 | 9268 ft | 264 kts | 303° |
| 2026-05-05 14:27 | 56.84188 | 10.78861 | 8883 ft | 262 kts | 303° |
| 2026-05-05 14:27 | 56.85225 | 10.76143 | 8517 ft | 260 kts | 303° |
| 2026-05-05 14:28 | 56.86251 | 10.73452 | 8162 ft | 258 kts | 304° |
| 2026-05-05 14:28 | 56.87268 | 10.70786 | 7816 ft | 255 kts | 304° |
| 2026-05-05 14:28 | 56.88274 | 10.68143 | 7476 ft | 253 kts | 304° |
| 2026-05-05 14:28 | 56.89276 | 10.65511 | 7137 ft | 250 kts | 304° |
| 2026-05-05 14:29 | 56.90259 | 10.62923 | 6800 ft | 249 kts | 304° |
| 2026-05-05 14:29 | 56.91230 | 10.60366 | 6465 ft | 247 kts | 305° |
| 2026-05-05 14:29 | 56.92204 | 10.57796 | 6123 ft | 245 kts | 305° |
| 2026-05-05 14:29 | 56.93170 | 10.55247 | 5789 ft | 244 kts | 305° |
| 2026-05-05 14:30 | 56.94143 | 10.52680 | 5453 ft | 243 kts | 305° |
| 2026-05-05 14:30 | 56.95105 | 10.50137 | 5131 ft | 242 kts | 305° |
| 2026-05-05 14:30 | 56.96057 | 10.47618 | 4811 ft | 241 kts | 305° |
| 2026-05-05 14:30 | 56.97004 | 10.45106 | 4496 ft | 240 kts | 305° |
| 2026-05-05 14:31 | 56.97939 | 10.42624 | 4182 ft | 239 kts | 305° |
| 2026-05-05 14:31 | 56.98875 | 10.40136 | 3874 ft | 238 kts | 305° |
| 2026-05-05 14:31 | 56.99811 | 10.37647 | 3566 ft | 237 kts | 305° |
| 2026-05-05 14:31 | 57.00742 | 10.35167 | 3257 ft | 236 kts | 305° |
| 2026-05-05 14:32 | 57.01653 | 10.32738 | 3158 ft | 224 kts | 304° |
| 2026-05-05 14:32 | 57.02508 | 10.30456 | 3141 ft | 210 kts | 304° |
| 2026-05-05 14:32 | 57.03321 | 10.28286 | 3125 ft | 205 kts | 304° |
| 2026-05-05 14:32 | 57.03871 | 10.26872 | 3098 ft | 206 kts | 310° |
| 2026-05-05 14:33 | 57.05397 | 10.24831 | 3031 ft | 207 kts | 332° |
| 2026-05-05 14:33 | 57.06690 | 10.23669 | 2909 ft | 207 kts | 333° |
| 2026-05-05 14:33 | 57.07988 | 10.22525 | 2763 ft | 204 kts | 333° |
| 2026-05-05 14:33 | 57.09250 | 10.21401 | 2551 ft | 200 kts | 333° |
| 2026-05-05 14:34 | 57.10493 | 10.20283 | 2330 ft | 197 kts | 333° |
| 2026-05-05 14:34 | 57.11631 | 10.19004 | 2103 ft | 193 kts | 311° |
| 2026-05-05 14:34 | 57.12035 | 10.16813 | 2051 ft | 179 kts | 267° |
| 2026-05-05 14:34 | 57.11737 | 10.14612 | 2020 ft | 179 kts | 256° |
| 2026-05-05 14:35 | 57.11385 | 10.12431 | 1993 ft | 177 kts | 258° |
| 2026-05-05 14:35 | 57.11136 | 10.10316 | 1978 ft | 158 kts | 263° |
| 2026-05-05 14:35 | 57.10989 | 10.08348 | 1980 ft | 156 kts | 265° |
| 2026-05-05 14:35 | 57.10865 | 10.06347 | 1974 ft | 156 kts | 266° |
| 2026-05-05 14:36 | 57.10739 | 10.04358 | 1832 ft | 156 kts | 266° |
| 2026-05-05 14:36 | 57.10610 | 10.02386 | 1622 ft | 156 kts | 266° |
| 2026-05-05 14:36 | 57.10480 | 10.00424 | 1421 ft | 155 kts | 265° |
| 2026-05-05 14:36 | 57.10350 | 9.98462 | 1208 ft | 156 kts | 265° |
| 2026-05-05 14:37 | 57.10219 | 9.96464 | 1000 ft | 155 kts | 265° |
| 2026-05-05 14:37 | 57.10096 | 9.94595 | 776 ft | 141 kts | 265° |
| 2026-05-05 14:37 | 57.09987 | 9.92902 | 582 ft | 128 kts | 264° |
| 2026-05-05 14:37 | 57.09885 | 9.91301 | 430 ft | 127 kts | 263° |
| 2026-05-05 14:38 | 57.09816 | 9.90229 | 319 ft | 127 kts | 263° |
| 2026-05-05 14:38 | 57.09679 | 9.88077 | 97 ft | 126 kts | 264° |
| 2026-05-05 14:38 | 57.09578 | 9.86519 | 14 ft | 109 kts | 265° |
| 2026-05-05 14:38 | 57.09507 | 9.85448 | 14 ft | 60 kts | 263° |
| 2026-05-05 14:39 | 57.09468 | 9.84818 | 14 ft | 44 kts | 265° |
| 2026-05-05 14:39 | 57.09433 | 9.84360 | 14 ft | 19 kts | 251° |
| 2026-05-05 14:39 | 57.09365 | 9.84327 | 14 ft | 12 kts | 142° |
| 2026-05-05 14:39 | 57.09296 | 9.84438 | 14 ft | 13 kts | 138° |
| 2026-05-05 14:40 | 57.09255 | 9.84594 | 14 ft | 14 kts | 84° |
| 2026-05-05 14:40 | 57.09271 | 9.84775 | 14 ft | 14 kts | 82° |
| 2026-05-05 14:40 | 57.09280 | 9.84905 | 14 ft | 16 kts | 83° |
| 2026-05-05 14:40 | 57.09298 | 9.85188 | 14 ft | 17 kts | 83° |
| 2026-05-05 14:41 | 57.09312 | 9.85412 | 14 ft | 17 kts | 84° |
| 2026-05-05 14:41 | 57.09326 | 9.85642 | 14 ft | 18 kts | 83° |
| 2026-05-05 14:41 | 57.09340 | 9.85858 | 14 ft | 13 kts | 88° |
| 2026-05-05 14:41 | 57.09277 | 9.85979 | 14 ft | 14 kts | 145° |
| 2026-05-05 14:42 | 57.09194 | 9.86092 | 14 ft | 15 kts | 142° |
| 2026-05-05 14:42 | 57.09110 | 9.86212 | 14 ft | 15 kts | 143° |
| 2026-05-05 14:42 | 57.09020 | 9.86342 | 14 ft | 16 kts | 140° |
| 2026-05-05 14:42 | 57.08926 | 9.86472 | 14 ft | 17 kts | 141° |
| 2026-05-05 14:43 | 57.08832 | 9.86613 | 14 ft | 17 kts | 143° |
| 2026-05-05 14:43 | 57.08735 | 9.86748 | 14 ft | 14 kts | 142° |
| 2026-05-05 14:43 | 57.08686 | 9.86824 | 14 ft | 3 kts | 137° |
| 2026-05-05 14:43 | 57.08693 | 9.86854 | 14 ft | 2 kts | 22° |
| 2026-05-05 14:44 | 57.08710 | 9.86875 | 14 ft | 2 kts | 52° |
| 2026-05-05 14:44 | 57.08720 | 9.86902 | 14 ft | 2 kts | 56° |
| 2026-05-05 14:44 | 57.08728 | 9.86925 | 14 ft | 0 kts | 56° |
| 2026-05-05 14:44 | 57.08731 | 9.86933 | 14 ft | 1 kts | 56° |
| 2026-05-05 14:45 | 57.08733 | 9.86938 | 14 ft | 0 kts | 57° |